createdAt,value
2019-04-30T00:01:33.483Z,3.58
2019-04-30T00:04:06.939Z,4.17
2019-04-30T00:06:39.415Z,3.80
2019-04-30T00:09:09.832Z,4.12
2019-04-30T00:11:40.118Z,4.35
2019-04-30T00:14:09.830Z,3.72
2019-04-30T00:16:40.040Z,3.77
2019-04-30T00:19:10.605Z,2.92
2019-04-30T00:21:41.209Z,2.80
2019-04-30T00:24:10.973Z,2.72
2019-04-30T00:26:46.161Z,2.50
2019-04-30T00:29:12.023Z,3.05
2019-04-30T00:31:41.708Z,3.17
2019-04-30T00:34:11.516Z,2.77
2019-04-30T00:36:41.255Z,2.25
2019-04-30T00:39:13.339Z,3.55
2019-04-30T00:41:44.051Z,3.42
2019-04-30T00:44:15.160Z,3.37
2019-04-30T00:46:45.785Z,3.80
2019-04-30T00:49:22.843Z,4.03
2019-04-30T00:51:49.768Z,4.17
2019-04-30T00:54:22.543Z,3.40
2019-04-30T00:56:50.330Z,2.47
2019-04-30T00:59:20.041Z,3.45
2019-04-30T01:02:27.690Z,3.40
2019-04-30T01:04:52.696Z,3.02
2019-04-30T01:07:22.564Z,3.45
2019-04-30T01:09:52.476Z,3.55
2019-04-30T01:12:27.531Z,3.98
2019-04-30T01:14:53.585Z,3.52
2019-04-30T01:17:23.344Z,3.80
2019-04-30T01:19:54.575Z,4.08
2019-04-30T01:22:28.440Z,4.35
2019-04-30T01:24:55.999Z,3.80
2019-04-30T01:27:25.814Z,3.60
2019-04-30T01:29:55.757Z,4.10
2019-04-30T01:32:25.483Z,4.20
2019-04-30T01:34:55.302Z,4.10
2019-04-30T01:37:28.956Z,4.47
2019-04-30T01:39:56.322Z,4.28
2019-04-30T01:42:28.175Z,4.65
2019-04-30T01:44:58.995Z,4.20
2019-04-30T01:47:29.540Z,4.47
2019-04-30T01:50:04.580Z,4.30
2019-04-30T01:52:49.389Z,3.90
2019-04-30T01:55:20.748Z,3.83
2019-04-30T01:57:59.243Z,4.37
2019-04-30T02:00:32.424Z,3.92
2019-04-30T02:03:02.218Z,4.20
2019-04-30T02:05:31.894Z,4.60
2019-04-30T02:08:01.751Z,4.67
2019-04-30T02:10:31.404Z,4.15
2019-04-30T02:13:01.171Z,3.77
2019-04-30T02:15:30.879Z,4.00
2019-04-30T02:18:00.730Z,4.20
2019-04-30T02:20:30.457Z,4.22
2019-04-30T02:23:00.718Z,3.90
2019-04-30T02:25:30.371Z,4.17
2019-04-30T02:28:00.142Z,3.72
2019-04-30T02:30:30.977Z,4.53
2019-04-30T02:33:00.952Z,3.60
2019-04-30T02:36:03.249Z,3.60
2019-04-30T02:38:35.303Z,4.00
2019-04-30T02:41:05.105Z,2.98
2019-04-30T02:43:35.365Z,3.02
2019-04-30T02:46:06.468Z,3.12
2019-04-30T02:48:39.900Z,3.05
2019-04-30T02:51:13.034Z,3.20
2019-04-30T02:54:05.750Z,3.45
2019-04-30T02:56:35.449Z,3.20
2019-04-30T02:59:05.295Z,3.30
2019-04-30T03:02:23.332Z,3.20
2019-04-30T03:04:54.381Z,3.27
2019-04-30T03:07:24.077Z,2.85
2019-04-30T03:09:53.763Z,2.55
2019-04-30T03:12:23.499Z,2.70
2019-04-30T03:14:54.386Z,2.35
2019-04-30T03:17:42.644Z,1.98
2019-04-30T03:22:53.935Z,2.15
2019-04-30T03:25:23.600Z,2.05
2019-04-30T03:27:53.300Z,2.12
2019-04-30T03:30:23.018Z,2.12
2019-04-30T03:32:56.933Z,2.00
2019-04-30T03:35:24.229Z,2.20
2019-04-30T03:37:53.940Z,2.25
2019-04-30T03:40:23.648Z,2.02
2019-04-30T03:42:53.294Z,1.50
2019-04-30T03:45:24.689Z,2.08
2019-04-30T03:47:54.444Z,1.98
2019-04-30T03:50:24.225Z,2.30
2019-04-30T03:52:53.877Z,2.60
2019-04-30T03:55:24.946Z,1.87
2019-04-30T03:57:55.285Z,2.00
2019-04-30T04:00:34.484Z,2.17
2019-04-30T04:03:04.260Z,1.98
2019-04-30T04:05:54.261Z,1.90
2019-04-30T04:08:31.350Z,2.02
2019-04-30T04:11:10.297Z,2.10
2019-04-30T04:13:40.166Z,1.90
2019-04-30T04:16:09.894Z,2.52
2019-04-30T04:18:40.300Z,2.42
2019-04-30T04:21:16.251Z,2.52
2019-04-30T04:23:41.538Z,2.15
2019-04-30T04:26:13.567Z,2.77
2019-04-30T04:28:43.649Z,2.42
2019-04-30T04:31:13.540Z,2.40
2019-04-30T04:33:43.250Z,1.98
2019-04-30T04:36:13.023Z,2.40
2019-04-30T04:38:42.874Z,2.80
2019-04-30T04:41:12.672Z,2.60
2019-04-30T04:43:42.389Z,2.70
2019-04-30T04:46:12.200Z,3.70
2019-04-30T04:48:41.975Z,2.80
2019-04-30T04:51:27.780Z,2.87
2019-04-30T04:53:43.294Z,2.45
2019-04-30T04:56:13.067Z,3.25
2019-04-30T04:58:42.848Z,3.08
2019-04-30T05:01:12.615Z,3.10
2019-04-30T05:03:42.434Z,2.67
2019-04-30T05:06:12.222Z,2.87
2019-04-30T05:08:42.050Z,3.45
2019-04-30T05:11:11.841Z,3.12
2019-04-30T05:13:41.615Z,2.45
2019-04-30T05:16:12.542Z,2.98
2019-04-30T05:18:42.195Z,2.80
2019-04-30T05:21:12.252Z,3.50
2019-04-30T05:23:42.761Z,3.08
2019-04-30T05:26:12.574Z,2.92
2019-04-30T05:28:42.318Z,2.83
2019-04-30T05:31:12.008Z,2.62
2019-04-30T05:33:41.685Z,2.52
2019-04-30T05:36:11.440Z,2.58
2019-04-30T05:38:41.286Z,2.60
2019-04-30T05:41:11.000Z,3.15
2019-04-30T05:43:40.714Z,2.90
2019-04-30T05:46:10.966Z,2.85
2019-04-30T05:48:40.939Z,3.02
2019-04-30T05:51:10.701Z,2.35
2019-04-30T05:53:40.372Z,2.00
2019-04-30T05:56:10.093Z,1.92
2019-04-30T05:58:39.944Z,2.08
2019-04-30T06:01:09.927Z,1.90
2019-04-30T06:03:39.703Z,1.57
2019-04-30T06:06:11.496Z,2.00
2019-04-30T06:08:50.256Z,2.17
2019-04-30T06:11:39.343Z,1.60
2019-04-30T06:14:28.536Z,1.50
2019-04-30T06:17:23.335Z,1.25
2019-04-30T06:19:53.057Z,1.47
2019-04-30T06:22:23.350Z,1.20
2019-04-30T06:24:53.274Z,1.22
2019-04-30T06:27:23.044Z,1.27
2019-04-30T06:29:52.940Z,1.30
2019-04-30T06:32:24.011Z,1.00
2019-04-30T06:34:53.886Z,1.30
2019-04-30T06:37:24.213Z,1.20
2019-04-30T06:39:53.941Z,1.20
2019-04-30T06:42:23.931Z,1.32
2019-04-30T06:44:54.034Z,1.30
2019-04-30T06:47:32.928Z,1.40
2019-04-30T06:49:55.172Z,1.40
2019-04-30T06:52:24.949Z,1.25
2019-04-30T06:54:54.715Z,1.50
2019-04-30T06:57:24.415Z,1.70
2019-04-30T06:59:54.099Z,1.60
2019-04-30T07:02:23.861Z,1.50
2019-04-30T07:04:53.567Z,1.27
2019-04-30T07:07:36.274Z,1.50
2019-04-30T07:10:16.757Z,1.10
2019-04-30T07:12:59.400Z,1.50
2019-04-30T07:15:29.588Z,1.42
2019-04-30T07:17:59.486Z,1.30
2019-04-30T07:20:29.279Z,1.70
2019-04-30T07:23:02.983Z,1.52
2019-04-30T07:25:30.399Z,2.05
2019-04-30T07:28:00.133Z,1.70
2019-04-30T07:30:30.930Z,1.87
2019-04-30T07:33:00.858Z,1.67
2019-04-30T07:35:30.593Z,2.35
2019-04-30T07:38:04.713Z,2.50
2019-04-30T07:40:31.598Z,3.22
2019-04-30T07:43:01.263Z,3.47
2019-04-30T07:45:31.955Z,3.35
2019-04-30T07:48:02.140Z,3.22
2019-04-30T07:50:32.478Z,3.20
2019-04-30T07:53:06.406Z,2.85
2019-04-30T07:55:34.138Z,2.90
2019-04-30T07:58:03.907Z,3.08
2019-04-30T08:00:33.606Z,3.27
2019-04-30T08:03:13.508Z,4.97
2019-04-30T08:05:45.055Z,3.75
2019-04-30T08:08:21.655Z,4.72
2019-04-30T08:10:46.273Z,4.30
2019-04-30T08:13:16.577Z,5.25
2019-04-30T08:15:46.923Z,5.35
2019-04-30T08:18:18.400Z,5.15
2019-04-30T08:20:49.036Z,5.60
2019-04-30T08:23:33.074Z,5.50
2019-04-30T08:25:50.254Z,5.47
2019-04-30T08:28:19.994Z,5.00
2019-04-30T08:30:49.704Z,6.45
2019-04-30T08:33:19.532Z,5.58
2019-04-30T08:35:49.867Z,6.22
2019-04-30T08:38:19.819Z,6.28
2019-04-30T08:40:56.130Z,6.42
2019-04-30T08:43:20.942Z,6.85
2019-04-30T08:45:50.716Z,7.12
2019-04-30T08:48:20.382Z,7.35
2019-04-30T08:50:50.475Z,7.45
2019-04-30T08:53:27.447Z,7.17
2019-04-30T08:55:51.805Z,6.58
2019-04-30T08:58:21.508Z,6.33
2019-04-30T09:00:51.194Z,5.65
2019-04-30T09:03:20.875Z,5.92
2019-04-30T09:06:19.525Z,4.10
2019-04-30T09:08:52.099Z,4.50
2019-04-30T09:11:28.172Z,3.50
2019-04-30T09:13:53.205Z,3.77
2019-04-30T09:16:22.920Z,3.67
2019-04-30T09:18:52.585Z,4.53
2019-04-30T09:21:22.272Z,4.60
2019-04-30T09:23:52.792Z,4.83
2019-04-30T09:26:22.708Z,4.58
2019-04-30T09:28:53.196Z,5.78
2019-04-30T09:31:23.314Z,6.40
2019-04-30T09:33:53.546Z,7.58
2019-04-30T09:36:23.275Z,6.62
2019-04-30T09:38:52.988Z,7.85
2019-04-30T09:41:22.700Z,8.03
2019-04-30T09:43:52.408Z,8.33
2019-04-30T09:46:26.293Z,9.48
2019-04-30T09:48:53.466Z,10.78
2019-04-30T09:51:24.830Z,11.25
2019-04-30T09:53:58.603Z,10.72
2019-04-30T09:56:25.819Z,10.90
2019-04-30T09:58:55.491Z,12.37
2019-04-30T10:01:25.194Z,12.73
2019-04-30T10:03:55.329Z,13.03
2019-04-30T10:06:37.068Z,13.72
2019-04-30T10:08:56.621Z,12.50
2019-04-30T10:11:45.293Z,10.93
2019-04-30T10:14:14.999Z,11.63
2019-04-30T10:16:57.253Z,10.38
2019-04-30T10:19:26.883Z,10.82
2019-04-30T10:21:56.571Z,9.13
2019-04-30T10:24:26.232Z,9.98
2019-04-30T10:27:02.325Z,4.70
2019-04-30T10:29:32.389Z,3.70
2019-04-30T10:32:02.038Z,3.87
2019-04-30T10:34:31.654Z,2.70
2019-04-30T10:37:02.897Z,2.67
2019-04-30T10:39:32.808Z,5.08
2019-04-30T10:42:02.861Z,5.92
2019-04-30T10:44:32.569Z,11.22
2019-04-30T10:47:02.317Z,13.88
2019-04-30T10:52:12.822Z,6.20
2019-04-30T10:54:42.541Z,6.78
2019-04-30T10:57:12.253Z,4.95
2019-04-30T10:59:41.943Z,5.40
2019-04-30T11:02:11.625Z,6.15
2019-04-30T11:04:41.409Z,7.35
2019-04-30T11:07:11.046Z,6.95
2019-04-30T11:09:43.781Z,7.30
2019-04-30T11:12:13.450Z,9.63
2019-04-30T11:14:43.192Z,8.85
2019-04-30T11:17:13.021Z,12.10
2019-04-30T11:19:42.952Z,11.05
2019-04-30T11:22:12.903Z,13.10
2019-04-30T11:24:56.651Z,16.67
2019-04-30T11:27:14.737Z,16.77
2019-04-30T11:29:45.024Z,17.30
2019-04-30T11:32:20.814Z,16.97
2019-04-30T11:34:50.804Z,17.70
2019-04-30T11:37:20.702Z,17.95
2019-04-30T11:39:50.497Z,17.92
2019-04-30T11:42:20.328Z,20.05
2019-04-30T11:44:50.031Z,19.45
2019-04-30T11:47:39.448Z,19.45
2019-04-30T11:50:14.275Z,18.70
2019-04-30T11:52:44.100Z,21.37
2019-04-30T11:55:13.907Z,18.42
2019-04-30T11:57:43.816Z,10.23
2019-04-30T12:00:18.752Z,7.50
2019-04-30T12:02:52.689Z,8.55
2019-04-30T12:05:20.857Z,8.78
2019-04-30T12:08:19.426Z,11.97
2019-04-30T12:11:08.900Z,14.40
2019-04-30T12:13:38.560Z,16.52
2019-04-30T12:16:08.678Z,20.32
2019-04-30T12:18:38.614Z,17.42
2019-04-30T12:21:08.340Z,15.50
2019-04-30T12:23:38.032Z,13.75
2019-04-30T12:26:09.196Z,7.42
2019-04-30T12:28:39.095Z,8.13
2019-04-30T12:31:09.859Z,8.45
2019-04-30T12:33:39.681Z,8.23
2019-04-30T12:36:09.449Z,7.05
2019-04-30T12:38:39.243Z,10.55
2019-04-30T12:41:08.961Z,13.05
2019-04-30T12:43:38.657Z,13.00
2019-04-30T12:46:08.390Z,14.70
2019-04-30T12:48:59.782Z,13.20
2019-04-30T12:51:46.105Z,16.17
2019-04-30T12:54:24.675Z,15.90
2019-04-30T12:57:09.211Z,18.10
2019-04-30T12:59:38.294Z,16.50
2019-04-30T13:02:09.132Z,17.82
2019-04-30T13:04:39.460Z,18.00
2019-04-30T13:07:10.547Z,20.10
2019-04-30T13:09:41.222Z,21.40
2019-04-30T13:12:11.775Z,20.97
2019-04-30T13:14:51.672Z,20.72
2019-04-30T13:17:13.376Z,23.65
2019-04-30T13:19:43.105Z,22.62
2019-04-30T13:22:12.859Z,22.00
2019-04-30T13:24:42.651Z,23.62
2019-04-30T13:27:12.384Z,24.63
2019-04-30T13:29:58.085Z,26.45
2019-04-30T13:32:32.806Z,25.85
2019-04-30T13:35:02.290Z,26.20
2019-04-30T13:38:03.230Z,27.50
2019-04-30T13:40:42.362Z,26.17
2019-04-30T13:43:12.264Z,27.22
2019-04-30T13:45:42.003Z,27.07
2019-04-30T13:48:11.749Z,30.08
2019-04-30T13:50:41.511Z,29.52
2019-04-30T13:53:11.274Z,29.65
2019-04-30T13:55:45.556Z,26.95
2019-04-30T13:58:12.482Z,28.15
2019-04-30T14:00:42.260Z,28.45
2019-04-30T14:03:29.127Z,25.30
2019-04-30T14:05:59.407Z,29.12
2019-04-30T14:08:34.415Z,24.90
2019-04-30T14:11:04.130Z,29.45
2019-04-30T14:13:33.846Z,25.32
2019-04-30T14:16:03.680Z,27.37
2019-04-30T14:18:34.175Z,25.40
2019-04-30T14:21:04.200Z,25.15
2019-04-30T14:23:33.952Z,22.45
2019-04-30T14:26:03.768Z,22.70
2019-04-30T14:28:33.443Z,22.77
2019-04-30T14:31:03.771Z,23.02
2019-04-30T14:33:33.484Z,24.25
2019-04-30T14:36:03.969Z,22.62
2019-04-30T14:38:33.630Z,22.32
2019-04-30T14:41:03.892Z,20.65
2019-04-30T14:43:42.746Z,22.65
2019-04-30T14:49:34.573Z,22.37
2019-04-30T14:52:05.253Z,21.75
2019-04-30T14:54:43.714Z,20.88
2019-04-30T14:57:31.129Z,22.07
2019-04-30T15:00:18.314Z,22.13
2019-04-30T15:02:52.915Z,23.05
2019-04-30T15:05:24.818Z,22.77
2019-04-30T15:07:54.171Z,21.30
2019-04-30T15:10:25.893Z,20.68
2019-04-30T15:12:55.227Z,19.57
2019-04-30T15:15:25.129Z,22.48
2019-04-30T15:17:59.204Z,19.98
2019-04-30T15:20:29.639Z,18.70
2019-04-30T15:23:19.010Z,18.45
2019-04-30T15:25:42.852Z,19.05
2019-04-30T15:28:12.568Z,18.85
2019-04-30T15:30:42.318Z,19.00
2019-04-30T15:33:22.246Z,19.27
2019-04-30T15:35:51.957Z,17.45
2019-04-30T15:38:23.807Z,16.57
2019-04-30T15:40:53.646Z,16.50
2019-04-30T15:43:23.373Z,17.35
2019-04-30T15:45:57.227Z,17.55
2019-04-30T15:48:26.169Z,15.75
2019-04-30T15:50:56.010Z,17.05
2019-04-30T15:53:25.784Z,15.90
2019-04-30T15:55:55.529Z,14.25
2019-04-30T15:58:26.817Z,15.13
2019-04-30T16:01:00.988Z,14.65
2019-04-30T16:03:31.983Z,15.32
2019-04-30T16:06:03.409Z,14.18
2019-04-30T16:08:38.993Z,13.72
2019-04-30T16:11:22.243Z,13.32
2019-04-30T16:14:20.013Z,14.18
2019-04-30T16:16:58.972Z,12.75
2019-04-30T16:19:28.892Z,12.28
2019-04-30T16:21:58.740Z,13.13
2019-04-30T16:24:28.796Z,13.13
2019-04-30T16:26:59.383Z,12.18
2019-04-30T16:29:29.438Z,12.23
2019-04-30T16:31:59.295Z,11.28
2019-04-30T16:34:30.402Z,11.60
2019-04-30T16:37:00.318Z,11.83
2019-04-30T16:39:30.024Z,11.28
2019-04-30T16:41:59.786Z,11.83
2019-04-30T16:44:29.464Z,9.83
2019-04-30T16:46:59.658Z,11.18
2019-04-30T16:49:29.563Z,11.15
2019-04-30T16:52:01.555Z,10.80
2019-04-30T16:54:30.592Z,10.20
2019-04-30T16:57:04.142Z,11.10
2019-04-30T16:59:39.684Z,10.80
2019-04-30T17:02:10.230Z,11.73
2019-04-30T17:05:01.888Z,11.18
2019-04-30T17:07:50.512Z,11.38
2019-04-30T17:10:44.783Z,12.10
2019-04-30T17:13:28.994Z,12.65
2019-04-30T17:16:04.784Z,11.57
2019-04-30T17:18:34.455Z,11.35
2019-04-30T17:21:04.262Z,11.73
2019-04-30T17:23:33.943Z,14.05
2019-04-30T17:26:03.596Z,14.43
2019-04-30T17:28:33.302Z,14.35
2019-04-30T17:31:02.961Z,13.50
2019-04-30T17:33:32.682Z,14.80
2019-04-30T17:36:02.334Z,18.27
2019-04-30T17:38:32.050Z,17.77
2019-04-30T17:41:01.722Z,16.60
2019-04-30T17:43:31.399Z,17.37
2019-04-30T17:46:01.032Z,16.23
2019-04-30T17:48:31.059Z,16.65
2019-04-30T17:51:00.903Z,13.88
2019-04-30T17:53:31.627Z,13.48
2019-04-30T17:56:01.394Z,14.13
2019-04-30T17:58:31.058Z,14.18
2019-04-30T18:01:02.374Z,13.00
2019-04-30T18:03:32.132Z,13.80
2019-04-30T18:06:01.864Z,15.23
2019-04-30T18:08:31.579Z,13.38
2019-04-30T18:11:01.253Z,15.23
2019-04-30T18:13:30.919Z,15.08
2019-04-30T18:16:00.658Z,15.60
2019-04-30T18:18:59.202Z,15.53
2019-04-30T18:21:36.171Z,15.55
2019-04-30T18:24:20.114Z,14.47
2019-04-30T18:27:08.570Z,14.23
2019-04-30T18:29:38.286Z,15.03
2019-04-30T18:32:09.331Z,14.95
2019-04-30T18:34:39.231Z,14.60
2019-04-30T18:37:09.060Z,14.47
2019-04-30T18:39:38.787Z,14.85
2019-04-30T18:42:10.856Z,15.28
2019-04-30T18:44:39.850Z,12.95
2019-04-30T18:47:09.576Z,14.85
2019-04-30T18:49:39.527Z,14.07
2019-04-30T18:52:09.177Z,14.55
2019-04-30T18:54:39.698Z,15.55
2019-04-30T18:57:09.661Z,13.93
2019-04-30T18:59:39.406Z,14.43
2019-04-30T19:02:11.472Z,15.28
2019-04-30T19:04:41.188Z,15.88
2019-04-30T19:07:21.652Z,15.83
2019-04-30T19:09:58.912Z,16.55
2019-04-30T19:12:50.521Z,15.32
2019-04-30T19:16:11.270Z,16.25
2019-04-30T19:18:35.538Z,15.43
2019-04-30T19:21:05.995Z,15.48
2019-04-30T19:23:35.772Z,15.85
2019-04-30T19:26:05.597Z,16.85
2019-04-30T19:28:35.343Z,17.57
2019-04-30T19:31:05.213Z,17.10
2019-04-30T19:33:35.020Z,16.37
2019-04-30T19:36:04.786Z,15.95
2019-04-30T19:38:34.445Z,16.15
2019-04-30T19:41:04.248Z,17.07
2019-04-30T19:43:34.261Z,15.55
2019-04-30T19:46:04.042Z,16.00
2019-04-30T19:48:33.752Z,14.18
2019-04-30T19:51:03.494Z,14.65
2019-04-30T19:53:33.240Z,14.03
2019-04-30T19:56:03.043Z,12.10
2019-04-30T19:58:48.051Z,13.45
2019-04-30T20:01:04.660Z,11.55
2019-04-30T20:03:34.386Z,12.10
2019-04-30T20:06:04.120Z,12.70
2019-04-30T20:08:33.855Z,12.95
2019-04-30T20:11:03.609Z,12.30
2019-04-30T20:13:36.995Z,12.47
2019-04-30T20:16:04.992Z,12.23
2019-04-30T20:18:34.865Z,11.45
2019-04-30T20:21:09.247Z,12.00
2019-04-30T20:23:39.019Z,12.47
2019-04-30T20:26:08.689Z,11.45
2019-04-30T20:28:42.265Z,10.58
2019-04-30T20:31:11.520Z,12.05
2019-04-30T20:33:41.490Z,12.00
2019-04-30T20:36:11.220Z,11.40
2019-04-30T20:39:18.503Z,10.85
2019-04-30T20:41:51.646Z,12.20
2019-04-30T20:44:21.375Z,11.63
2019-04-30T20:46:51.132Z,12.10
2019-04-30T20:49:20.926Z,12.00
2019-04-30T20:51:55.545Z,11.57
2019-04-30T20:54:22.333Z,11.43
2019-04-30T20:56:52.005Z,11.85
2019-04-30T20:59:21.726Z,11.30
2019-04-30T21:01:51.469Z,12.45
2019-04-30T21:04:21.238Z,11.80
2019-04-30T21:06:50.915Z,11.93
2019-04-30T21:09:20.659Z,11.53
2019-04-30T21:11:50.346Z,11.57
2019-04-30T21:14:20.127Z,11.48
2019-04-30T21:16:49.888Z,12.07
2019-04-30T21:19:19.625Z,12.55
2019-04-30T21:21:49.795Z,12.18
2019-04-30T21:24:19.556Z,13.53
2019-04-30T21:26:49.296Z,14.10
2019-04-30T21:29:19.069Z,15.35
2019-04-30T21:32:07.682Z,16.35
2019-04-30T21:34:42.001Z,16.05
2019-04-30T21:37:11.782Z,17.05
2019-04-30T21:39:41.464Z,16.32
2019-04-30T21:42:11.274Z,17.20
2019-04-30T21:44:40.993Z,16.90
2019-04-30T21:47:10.738Z,17.62
2019-04-30T21:49:40.484Z,17.62
2019-04-30T21:52:10.193Z,17.40
2019-04-30T21:54:39.936Z,18.27
2019-04-30T21:57:09.664Z,17.60
2019-04-30T21:59:39.508Z,18.30
2019-04-30T22:02:09.330Z,19.20
2019-04-30T22:04:39.115Z,18.50
2019-04-30T22:07:09.418Z,17.85
2019-04-30T22:09:39.175Z,16.80
2019-04-30T22:12:09.265Z,17.90
2019-04-30T22:14:38.964Z,18.12
2019-04-30T22:17:09.324Z,17.55
2019-04-30T22:19:39.028Z,18.17
2019-04-30T22:22:09.401Z,18.40
2019-04-30T22:24:39.307Z,18.90
2019-04-30T22:27:09.012Z,18.20
2019-04-30T22:29:41.833Z,19.40
2019-04-30T22:32:10.214Z,19.07
2019-04-30T22:34:39.960Z,18.85
2019-04-30T22:37:09.665Z,19.07
2019-04-30T22:39:44.291Z,18.23
2019-04-30T22:42:30.847Z,17.75
2019-04-30T22:45:01.331Z,18.80
2019-04-30T22:47:31.284Z,17.57
2019-04-30T22:50:01.050Z,19.65
2019-04-30T22:52:30.777Z,17.12
2019-04-30T22:55:00.475Z,19.67
2019-04-30T22:57:30.219Z,17.60
2019-04-30T23:00:00.122Z,19.05
2019-04-30T23:02:48.683Z,19.40
2019-04-30T23:05:18.688Z,19.75
2019-04-30T23:07:48.444Z,19.25
2019-04-30T23:10:18.359Z,20.15
2019-04-30T23:12:48.116Z,19.85
2019-04-30T23:15:19.499Z,19.70
2019-04-30T23:17:49.175Z,18.87
2019-04-30T23:20:18.911Z,18.62
2019-04-30T23:22:48.648Z,18.48
2019-04-30T23:25:18.447Z,19.55
2019-04-30T23:27:48.300Z,19.15
2019-04-30T23:30:18.327Z,19.05
2019-04-30T23:32:48.060Z,17.70
2019-04-30T23:35:17.808Z,18.77
2019-04-30T23:37:47.625Z,18.30
2019-04-30T23:40:24.414Z,17.52
2019-04-30T23:42:54.411Z,18.77
2019-04-30T23:45:24.283Z,18.55
2019-04-30T23:47:54.109Z,19.25
2019-04-30T23:50:23.863Z,17.90
2019-04-30T23:52:53.551Z,19.35
2019-04-30T23:55:23.299Z,18.48
2019-04-30T23:57:53.136Z,18.52
